Archival Weather

Chicago O'Hare International

Chicago, Illinois (KORD)

Report from: Wednesday, March 27, 2024 12:51 AM CDT
Current time: Tuesday, May 21, 2024 12:49 PM CDT

Current weather – Weather history – Daily summaries
Weather forecast

Temperature0.0°C (32.0°F)
Wind chill-6.2°C (20.8°F)
Dew point-4.4°C (24.1°F)
Winds 15 kts (7.7 m/s, 17.3 mph) West (260°)
Wind gusts 24 kts (12.3 m/s, 27.6 mph)
Peak wind 30 kts (15.4 m/s, 34.5 mph) West (260°) at 04:52
Visibility10 mi. (16.1 km)
Clouds Ceiling: Overcast 2,000 ft. (610 m)
Altimeter29.82 in.Hg (1010 mB)
Relative humidity72 %
Density altitude-1,656 ft. (-505 m)
Sea-level pressure101.0 kPa (1010 mB, 29.83 in.Hg)
Max temp last 6 hours3.9°C (39.0°F)
Min temp last 6 hours0.0°C (32.0°F)
Max temp last 24 hours18.3°C (64.9°F)
Min temp last 24 hours0.0°C (32.0°F)
Remarks System requires maintenance
Automated weather observing station with precipitation discriminator
Pressure rising more quickly
Flight conditions Marginal Visual Meteorological Conditions
Raw dataKORD 270551Z 26015G24KT 10SM OVC020 00/M04 A2982 RMK AO2 PK WND 26030/0452 SLP101 T00001044 10039 20000 401830000 53024 $
An error has occurred. This application may no longer respond until reloaded. Reload 🗙